Date,TemperatureHighF,TemperatureAvgF,TemperatureLowF,DewpointHighF,DewpointAvgF,DewpointLowF,HumidityHigh,HumidityAvg,HumidityLow,PressureMaxIn,PressureMinIn,WindSpeedMaxMPH,WindSpeedAvgMPH,GustSpeedMaxMPH,PrecipitationSumIn
2013-4-1,50,45,36,47,41,19,100,85,46,29.85,29.60,29,10,29,0.06
2013-4-2,43,36,29,22,16,9,67,45,27,30.02,29.84,30,6,30,0.00
2013-4-3,45,37,30,17,14,12,55,40,27,30.23,29.99,32,8,32,0.00
2013-4-4,44,37,29,35,25,14,85,61,39,30.36,30.13,29,9,29,0.00
2013-4-5,53,44,40,43,36,18,91,74,27,30.13,29.68,27,7,28,0.00
2013-4-6,47,39,33,32,21,7,85,50,20,30.36,29.90,25,8,26,0.00
2013-4-7,48,40,27,44,35,25,94,84,53,30.36,30.08,30,9,30,0.00
2013-4-8,60,50,44,47,44,42,97,84,55,30.13,30.00,21,5,21,0.00
2013-4-9,76,56,45,54,46,42,99,75,31,30.11,29.86,27,7,29,0.01
2013-4-10,63,49,43,52,46,42,99,89,63,30.07,29.88,37,5,37,0.18
2013-4-11,52,47,43,49,44,38,99,89,70,30.13,29.82,18,5,19,0.03
2013-4-12,45,42,38,40,37,32,99,86,63,30.14,29.73,33,10,33,0.80
2013-4-13,55,44,39,43,38,35,99,81,48,29.98,29.70,26,6,28,0.01
2013-4-14,55,48,41,44,36,26,95,65,40,30.24,29.96,23,6,25,0.00
2013-4-15,50,44,38,42,35,27,97,71,55,30.43,30.24,15,4,15,0.00
2013-4-16,53,47,36,49,44,35,98,89,77,30.44,30.17,24,8,24,0.01
2013-4-17,64,53,42,51,46,40,98,78,46,30.35,30.12,22,6,24,0.02
2013-4-18,54,47,36,50,41,35,97,80,58,30.43,30.18,16,4,17,0.00
2013-4-19,60,55,51,60,55,50,100,99,95,30.18,29.74,38,13,38,0.10
2013-4-20,58,52,47,58,45,30,100,79,41,30.23,29.69,42,9,42,0.45
2013-4-21,52,43,35,35,27,22,87,56,34,30.69,30.23,26,6,27,0.00
2013-4-22,48,42,34,39,34,30,91,74,50,30.73,30.56,25,9,29,0.00
2013-4-23,45,43,41,43,40,34,96,91,76,30.56,30.04,30,10,31,0.01
2013-4-24,58,48,43,49,44,41,100,87,69,30.04,29.92,32,12,32,0.00
2013-4-25,62,53,41,50,41,26,100,70,26,30.28,29.92,23,6,23,0.02
2013-4-26,56,49,37,46,39,27,93,71,46,30.43,30.28,15,3,15,0.00
2013-4-27,55,47,39,47,41,34,98,81,48,30.43,30.35,15,3,15,0.00
2013-4-28,56,49,37,49,43,27,98,81,34,30.37,30.28,15,4,15,0.00
2013-4-29,58,51,45,50,43,32,98,76,41,30.31,30.26,16,4,16,0.00
2013-4-30,60,51,39,46,37,28,97,64,30,30.38,30.27,13,3,13,0.00